createdAt,value
2022-10-07T00:01:00.068Z,102055.00
2022-10-07T00:03:29.216Z,102055.00
2022-10-07T00:06:08.964Z,102053.00
2022-10-07T00:08:39.624Z,102058.00
2022-10-07T00:11:08.890Z,102051.00
2022-10-07T00:13:38.934Z,102057.00
2022-10-07T00:16:09.301Z,102057.00
2022-10-07T00:18:38.108Z,102053.00
2022-10-07T00:21:07.292Z,102055.00
2022-10-07T00:23:35.322Z,102046.00
2022-10-07T00:26:06.242Z,102042.00
2022-10-07T00:28:34.496Z,102038.00
2022-10-07T00:31:03.311Z,102044.00
2022-10-07T00:33:32.831Z,102036.00
2022-10-07T00:36:00.444Z,102026.00
2022-10-07T00:38:28.202Z,102028.00
2022-10-07T00:40:55.852Z,102022.00
2022-10-07T00:43:26.726Z,102029.00
2022-10-07T00:45:56.287Z,102010.00
2022-10-07T00:48:27.603Z,102002.00
2022-10-07T00:50:58.430Z,102011.00
2022-10-07T00:53:27.913Z,102003.00
2022-10-07T00:55:57.170Z,101992.00
2022-10-07T00:58:26.426Z,101994.00
2022-10-07T01:00:54.015Z,101994.00
2022-10-07T01:03:22.039Z,101995.00
2022-10-07T01:05:50.929Z,101990.00
2022-10-07T01:08:18.769Z,101985.00
2022-10-07T01:10:58.551Z,101978.00
2022-10-07T01:13:34.508Z,101988.00
2022-10-07T01:16:13.793Z,101984.00
2022-10-07T01:18:49.510Z,101981.00
2022-10-07T01:21:30.959Z,101978.00
2022-10-07T01:24:10.041Z,101955.00
2022-10-07T01:26:49.706Z,101966.00
2022-10-07T01:29:22.581Z,101970.00
2022-10-07T01:31:57.540Z,101967.00
2022-10-07T01:34:27.434Z,101957.00
2022-10-07T01:36:59.046Z,101956.00
2022-10-07T01:39:31.687Z,101953.00
2022-10-07T01:42:00.968Z,101951.00
2022-10-07T01:44:30.309Z,101944.00
2022-10-07T01:46:58.980Z,101947.00
2022-10-07T01:49:26.734Z,101946.00
2022-10-07T01:52:08.828Z,101946.00
2022-10-07T01:54:45.421Z,101937.00
2022-10-07T01:57:26.314Z,101926.00
2022-10-07T02:00:07.445Z,101922.00
2022-10-07T02:03:00.581Z,101930.00
2022-10-07T02:05:39.724Z,101916.00
2022-10-07T02:08:20.735Z,101912.00
2022-10-07T02:10:59.930Z,101903.00
2022-10-07T02:13:36.199Z,101915.00
2022-10-07T02:16:10.804Z,101909.00
2022-10-07T02:18:40.619Z,101913.00
2022-10-07T02:21:09.936Z,101905.00
2022-10-07T02:23:40.992Z,101910.00
2022-10-07T02:26:11.079Z,101901.00
2022-10-07T02:28:43.651Z,101916.00
2022-10-07T02:31:14.841Z,101903.00
2022-10-07T02:33:43.078Z,101904.00
2022-10-07T02:36:16.725Z,101899.00
2022-10-07T02:38:45.023Z,101899.00
2022-10-07T02:41:31.123Z,101895.00
2022-10-07T02:44:11.449Z,101893.00
2022-10-07T02:46:46.117Z,101891.00
2022-10-07T02:49:16.354Z,101893.00
2022-10-07T02:51:48.299Z,101886.00
2022-10-07T02:54:20.583Z,101886.00
2022-10-07T02:56:51.292Z,101873.00
2022-10-07T02:59:21.339Z,101882.00
2022-10-07T03:01:54.441Z,101879.00
2022-10-07T03:04:23.550Z,101878.00
2022-10-07T03:06:52.231Z,101882.00
2022-10-07T03:09:20.223Z,101887.00
2022-10-07T03:11:49.286Z,101876.00
2022-10-07T03:14:17.033Z,101875.00
2022-10-07T03:16:46.142Z,101879.00
2022-10-07T03:19:13.813Z,101876.00
2022-10-07T03:21:41.573Z,101882.00
2022-10-07T03:24:09.482Z,101870.00
2022-10-07T03:26:37.189Z,101864.00
2022-10-07T03:29:05.499Z,101874.00
2022-10-07T03:31:33.337Z,101872.00
2022-10-07T03:34:02.480Z,101844.00
2022-10-07T03:36:30.494Z,101850.00
2022-10-07T03:38:58.482Z,101856.00
2022-10-07T03:41:26.485Z,101852.00
2022-10-07T03:43:57.431Z,101841.00
2022-10-07T03:46:25.367Z,101838.00
2022-10-07T03:48:53.349Z,101843.00
2022-10-07T03:51:22.451Z,101849.00
2022-10-07T03:53:50.185Z,101838.00
2022-10-07T03:56:17.928Z,101828.00
2022-10-07T03:58:45.659Z,101834.00
2022-10-07T04:01:15.075Z,101826.00
2022-10-07T04:03:43.127Z,101830.00
2022-10-07T04:06:10.983Z,101835.00
2022-10-07T04:08:41.030Z,101823.00
2022-10-07T04:11:08.807Z,101834.00
2022-10-07T04:13:36.820Z,101829.00
2022-10-07T04:16:07.895Z,101824.00
2022-10-07T04:18:35.921Z,101823.00
2022-10-07T04:21:03.809Z,101819.00
2022-10-07T04:23:31.498Z,101816.00
2022-10-07T04:26:00.682Z,101814.00
2022-10-07T04:28:28.909Z,101818.00
2022-10-07T04:30:56.637Z,101825.00
2022-10-07T04:33:25.687Z,101815.00
2022-10-07T04:35:53.717Z,101812.00
2022-10-07T04:38:25.197Z,101805.00
2022-10-07T04:40:55.329Z,101803.00
2022-10-07T04:43:23.450Z,101818.00
2022-10-07T04:45:53.812Z,101815.00
2022-10-07T04:48:23.736Z,101811.00
2022-10-07T04:50:52.826Z,101811.00
2022-10-07T04:53:21.456Z,101811.00
2022-10-07T04:55:51.854Z,101794.00
2022-10-07T04:58:20.815Z,101807.00
2022-10-07T05:00:51.740Z,101804.00
2022-10-07T05:03:21.101Z,101794.00
2022-10-07T05:05:50.893Z,101794.00
2022-10-07T05:08:20.665Z,101800.00
2022-10-07T05:10:48.988Z,101794.00
2022-10-07T05:13:17.885Z,101787.00
2022-10-07T05:15:51.917Z,101794.00
2022-10-07T05:18:20.395Z,101785.00
2022-10-07T05:20:49.013Z,101787.00
2022-10-07T05:23:18.804Z,101788.00
2022-10-07T05:25:47.722Z,101780.00
2022-10-07T05:28:17.716Z,101789.00
2022-10-07T05:30:45.466Z,101790.00
2022-10-07T05:33:14.535Z,101790.00
2022-10-07T05:35:47.002Z,101782.00
2022-10-07T05:38:14.703Z,101781.00
2022-10-07T05:40:42.429Z,101779.00
2022-10-07T05:43:11.393Z,101775.00
2022-10-07T05:45:39.156Z,101779.00
2022-10-07T05:48:06.933Z,101787.00
2022-10-07T05:50:35.990Z,101776.00
2022-10-07T05:53:03.724Z,101777.00
2022-10-07T05:55:31.438Z,101778.00
2022-10-07T05:57:59.146Z,101766.00
2022-10-07T06:00:26.859Z,101774.00
2022-10-07T06:02:55.107Z,101778.00
2022-10-07T06:05:23.698Z,101761.00
2022-10-07T06:07:53.002Z,101775.00
2022-10-07T06:10:38.051Z,101771.00
2022-10-07T06:13:08.739Z,101772.00
2022-10-07T06:15:36.819Z,101773.00
2022-10-07T06:18:04.755Z,101770.00
2022-10-07T06:20:32.447Z,101755.00
2022-10-07T06:23:01.530Z,101756.00
2022-10-07T06:25:29.386Z,101763.00
2022-10-07T06:27:58.536Z,101759.00
2022-10-07T06:30:27.596Z,101761.00
2022-10-07T06:32:56.390Z,101755.00
2022-10-07T06:35:24.167Z,101758.00
2022-10-07T06:37:51.934Z,101747.00
2022-10-07T06:40:21.038Z,101759.00
2022-10-07T06:42:48.802Z,101748.00
2022-10-07T06:45:16.738Z,101759.00
2022-10-07T06:47:44.731Z,101749.00
2022-10-07T06:50:12.594Z,101758.00
2022-10-07T06:52:43.495Z,101758.00
2022-10-07T06:55:11.642Z,101757.00
2022-10-07T06:57:45.727Z,101757.00
2022-10-07T07:00:15.733Z,101760.00
2022-10-07T07:02:43.534Z,101760.00
2022-10-07T07:05:15.049Z,101752.00
2022-10-07T07:07:43.256Z,101756.00
2022-10-07T07:10:11.316Z,101753.00
2022-10-07T07:12:40.701Z,101756.00
2022-10-07T07:15:09.610Z,101758.00
2022-10-07T07:17:37.295Z,101761.00
2022-10-07T07:20:05.619Z,101760.00
2022-10-07T07:22:33.446Z,101753.00
2022-10-07T07:25:01.206Z,101754.00
2022-10-07T07:27:29.085Z,101744.00
2022-10-07T07:29:58.710Z,101743.00
2022-10-07T07:32:26.411Z,101747.00
2022-10-07T07:34:55.656Z,101741.00
2022-10-07T07:37:24.682Z,101739.00
2022-10-07T07:39:52.461Z,101737.00
2022-10-07T07:42:21.864Z,101740.00
2022-10-07T07:44:50.058Z,101739.00
2022-10-07T07:47:19.254Z,101744.00
2022-10-07T07:49:46.949Z,101744.00
2022-10-07T07:52:14.682Z,101732.00
2022-10-07T07:54:42.719Z,101730.00
2022-10-07T07:57:11.371Z,101729.00
2022-10-07T07:59:39.195Z,101736.00
2022-10-07T08:02:08.137Z,101728.00
2022-10-07T08:04:37.562Z,101729.00
2022-10-07T08:07:06.260Z,101730.00
2022-10-07T08:09:34.690Z,101715.00
2022-10-07T08:12:02.503Z,101716.00
2022-10-07T08:14:31.126Z,101713.00
2022-10-07T08:16:59.502Z,101721.00
2022-10-07T08:19:27.261Z,101712.00
2022-10-07T08:21:56.475Z,101693.00
2022-10-07T08:24:25.785Z,101705.00
2022-10-07T08:26:54.443Z,101703.00
2022-10-07T08:29:22.472Z,101709.00
2022-10-07T08:31:50.289Z,101709.00
2022-10-07T08:34:18.296Z,101708.00
2022-10-07T08:36:47.941Z,101700.00
2022-10-07T08:39:17.125Z,101708.00
2022-10-07T08:41:57.960Z,101702.00
2022-10-07T08:44:29.225Z,101699.00
2022-10-07T08:47:03.092Z,101700.00
2022-10-07T08:49:37.031Z,101695.00
2022-10-07T08:52:16.931Z,101696.00
2022-10-07T08:54:46.024Z,101697.00
2022-10-07T08:57:23.018Z,101697.00
2022-10-07T08:59:59.229Z,101694.00
2022-10-07T09:02:33.340Z,101693.00
2022-10-07T09:05:11.541Z,101682.00
2022-10-07T09:07:45.598Z,101687.00
2022-10-07T09:10:27.869Z,101678.00
2022-10-07T09:13:00.427Z,101669.00
2022-10-07T09:15:37.930Z,101668.00
2022-10-07T09:18:13.057Z,101663.00
2022-10-07T09:20:46.737Z,101663.00
2022-10-07T09:23:16.725Z,101670.00
2022-10-07T09:25:45.898Z,101664.00
2022-10-07T09:28:16.010Z,101656.00
2022-10-07T09:30:44.439Z,101659.00
2022-10-07T09:33:16.850Z,101652.00
2022-10-07T09:35:57.388Z,101651.00
2022-10-07T09:38:35.879Z,101644.00
2022-10-07T09:41:19.744Z,101645.00
2022-10-07T09:44:00.095Z,101633.00
2022-10-07T09:46:51.127Z,101636.00
2022-10-07T09:49:39.813Z,101632.00
2022-10-07T09:52:15.750Z,101626.00
2022-10-07T09:54:45.082Z,101619.00
2022-10-07T09:57:29.010Z,101622.00
2022-10-07T10:00:31.907Z,101619.00
2022-10-07T10:03:06.321Z,101618.00
2022-10-07T10:05:36.437Z,101599.00
2022-10-07T10:08:06.638Z,101618.00
2022-10-07T10:10:36.530Z,101608.00
2022-10-07T10:13:07.561Z,101615.00
2022-10-07T10:15:41.384Z,101616.00
2022-10-07T10:18:33.427Z,101609.00
2022-10-07T10:21:22.703Z,101602.00
2022-10-07T10:23:52.642Z,101605.00
2022-10-07T10:26:50.063Z,101599.00
2022-10-07T10:29:35.362Z,101594.00
2022-10-07T10:32:29.157Z,101592.00
2022-10-07T10:35:03.403Z,101576.00
2022-10-07T10:37:48.020Z,101579.00
2022-10-07T10:40:24.479Z,101573.00
2022-10-07T10:42:59.274Z,101556.00
2022-10-07T10:45:35.925Z,101567.00
2022-10-07T10:48:29.069Z,101566.00
2022-10-07T10:51:02.154Z,101561.00
2022-10-07T10:53:40.807Z,101567.00
2022-10-07T10:56:27.902Z,101567.00
2022-10-07T10:59:09.352Z,101546.00
2022-10-07T11:01:40.723Z,101547.00
2022-10-07T11:04:22.728Z,101543.00
2022-10-07T11:06:54.744Z,101535.00
2022-10-07T11:09:31.715Z,101528.00
2022-10-07T11:12:03.584Z,101523.00
2022-10-07T11:14:32.711Z,101516.00
2022-10-07T11:17:06.698Z,101510.00
2022-10-07T11:19:38.749Z,101511.00
2022-10-07T11:22:14.392Z,101504.00
2022-10-07T11:24:50.599Z,101483.00
2022-10-07T11:27:21.399Z,101478.00
2022-10-07T11:29:56.001Z,101492.00
2022-10-07T11:32:30.113Z,101473.00
2022-10-07T11:35:03.415Z,101477.00
2022-10-07T11:37:38.618Z,101479.00
2022-10-07T11:40:07.099Z,101466.00
2022-10-07T11:42:40.425Z,101471.00
2022-10-07T11:45:11.496Z,101459.00
2022-10-07T11:47:44.657Z,101446.00
2022-10-07T11:50:18.873Z,101457.00
2022-10-07T11:52:49.948Z,101451.00
2022-10-07T11:55:24.082Z,101448.00
2022-10-07T11:57:56.367Z,101434.00
2022-10-07T12:00:27.112Z,101436.00
2022-10-07T12:02:56.822Z,101429.00
2022-10-07T12:05:58.588Z,101429.00
2022-10-07T12:08:29.933Z,101416.00
2022-10-07T12:11:18.204Z,101415.00
2022-10-07T12:13:49.651Z,101402.00
2022-10-07T12:16:50.378Z,101392.00
2022-10-07T12:19:23.599Z,101379.00
2022-10-07T12:22:18.799Z,101388.00
2022-10-07T12:25:11.010Z,101388.00
2022-10-07T12:27:46.225Z,101393.00
2022-10-07T12:30:39.142Z,101380.00
2022-10-07T12:33:17.400Z,101386.00
2022-10-07T12:35:54.539Z,101372.00
2022-10-07T12:38:29.997Z,101368.00
2022-10-07T12:41:19.730Z,101365.00
2022-10-07T12:43:51.961Z,101358.00
2022-10-07T12:46:23.862Z,101355.00
2022-10-07T12:49:03.023Z,101347.00
2022-10-07T12:51:36.034Z,101344.00
2022-10-07T12:54:05.701Z,101339.00
2022-10-07T12:56:33.471Z,101336.00
2022-10-07T12:59:33.430Z,101337.00
2022-10-07T13:02:25.166Z,101341.00
2022-10-07T13:05:29.086Z,101332.00
2022-10-07T13:08:33.565Z,101330.00
2022-10-07T13:11:47.986Z,101323.00
2022-10-07T13:14:21.844Z,101313.00
2022-10-07T13:16:55.109Z,101313.00
2022-10-07T13:19:31.792Z,101310.00
2022-10-07T13:22:07.728Z,101308.00
2022-10-07T13:24:35.559Z,101305.00
2022-10-07T13:27:08.253Z,101299.00
2022-10-07T13:29:36.375Z,101299.00
2022-10-07T13:32:06.692Z,101295.00
2022-10-07T13:34:36.311Z,101289.00
2022-10-07T13:37:04.521Z,101293.00
2022-10-07T13:39:32.225Z,101285.00
2022-10-07T13:42:02.014Z,101283.00
2022-10-07T13:44:32.899Z,101284.00
2022-10-07T13:47:03.067Z,101288.00
2022-10-07T13:49:38.039Z,101274.00
2022-10-07T13:52:08.919Z,101268.00
2022-10-07T13:54:37.509Z,101262.00
2022-10-07T13:57:10.216Z,101258.00
2022-10-07T13:59:40.372Z,101258.00
2022-10-07T14:02:12.368Z,101260.00
2022-10-07T14:04:51.219Z,101263.00
2022-10-07T14:07:21.096Z,101259.00
2022-10-07T14:09:50.540Z,101254.00
2022-10-07T14:12:21.754Z,101235.00
2022-10-07T14:14:53.491Z,101242.00
2022-10-07T14:17:32.467Z,101227.00
2022-10-07T14:20:05.577Z,101233.00
2022-10-07T14:22:37.595Z,101229.00
2022-10-07T14:25:08.019Z,101221.00
2022-10-07T14:27:53.617Z,101217.00
2022-10-07T14:31:05.537Z,101215.00
2022-10-07T14:34:03.713Z,101205.00
2022-10-07T14:36:33.575Z,101200.00
2022-10-07T14:39:03.950Z,101196.00
2022-10-07T14:41:33.224Z,101188.00
2022-10-07T14:44:03.743Z,101195.00
2022-10-07T14:46:31.778Z,101198.00
2022-10-07T14:48:59.556Z,101188.00
2022-10-07T14:51:29.761Z,101188.00
2022-10-07T14:54:02.929Z,101178.00
2022-10-07T14:56:34.210Z,101173.00
2022-10-07T14:59:02.362Z,101175.00
2022-10-07T15:01:30.933Z,101181.00
2022-10-07T15:03:59.048Z,101162.00
2022-10-07T15:06:26.915Z,101171.00
2022-10-07T15:08:54.836Z,101161.00
2022-10-07T15:11:23.930Z,101159.00
2022-10-07T15:13:51.718Z,101158.00
2022-10-07T15:16:21.471Z,101159.00
2022-10-07T15:18:52.722Z,101159.00
2022-10-07T15:21:21.617Z,101164.00
2022-10-07T15:23:51.808Z,101159.00
2022-10-07T15:26:23.248Z,101153.00
2022-10-07T15:28:54.117Z,101157.00
2022-10-07T15:31:23.791Z,101153.00
2022-10-07T15:33:51.657Z,101165.00
2022-10-07T15:36:19.427Z,101146.00
2022-10-07T15:38:47.131Z,101149.00
2022-10-07T15:41:31.571Z,101149.00
2022-10-07T15:44:02.626Z,101150.00
2022-10-07T15:46:30.985Z,101152.00
2022-10-07T15:49:00.094Z,101143.00
2022-10-07T15:51:29.577Z,101146.00
2022-10-07T15:53:57.552Z,101143.00
2022-10-07T15:56:25.770Z,101141.00
2022-10-07T15:58:54.109Z,101133.00
2022-10-07T16:01:23.209Z,101135.00
2022-10-07T16:03:51.067Z,101128.00
2022-10-07T16:06:21.688Z,101126.00
2022-10-07T16:08:50.278Z,101128.00
2022-10-07T16:11:18.608Z,101125.00
2022-10-07T16:13:48.172Z,101120.00
2022-10-07T16:16:17.579Z,101116.00
2022-10-07T16:18:48.436Z,101127.00
2022-10-07T16:21:18.516Z,101115.00
2022-10-07T16:23:47.401Z,101111.00
2022-10-07T16:26:17.775Z,101107.00
2022-10-07T16:29:04.772Z,101106.00
2022-10-07T16:31:33.937Z,101109.00
2022-10-07T16:34:03.306Z,101096.00
2022-10-07T16:36:31.516Z,101106.00
2022-10-07T16:39:01.275Z,101106.00
2022-10-07T16:41:29.040Z,101104.00
2022-10-07T16:43:57.991Z,101102.00
2022-10-07T16:46:25.818Z,101096.00
2022-10-07T16:48:53.626Z,101095.00
2022-10-07T16:51:24.043Z,101091.00
2022-10-07T16:53:55.530Z,101095.00
2022-10-07T16:56:24.060Z,101105.00
2022-10-07T16:58:56.283Z,101095.00
2022-10-07T17:01:24.568Z,101100.00
2022-10-07T17:03:52.365Z,101092.00
2022-10-07T17:06:23.857Z,101092.00
2022-10-07T17:08:51.993Z,101087.00
2022-10-07T17:11:30.439Z,101092.00
2022-10-07T17:14:00.510Z,101094.00
2022-10-07T17:16:30.923Z,101089.00
2022-10-07T17:18:58.775Z,101085.00
2022-10-07T17:21:27.968Z,101094.00
2022-10-07T17:23:58.241Z,101088.00
2022-10-07T17:26:28.180Z,101094.00
2022-10-07T17:29:03.555Z,101090.00
2022-10-07T17:31:33.564Z,101100.00
2022-10-07T17:34:03.206Z,101079.00
2022-10-07T17:36:32.978Z,101082.00
2022-10-07T17:39:01.065Z,101079.00
2022-10-07T17:41:30.356Z,101087.00
2022-10-07T17:44:00.787Z,101091.00
2022-10-07T17:46:30.399Z,101086.00
2022-10-07T17:48:59.544Z,101074.00
2022-10-07T17:51:29.663Z,101085.00
2022-10-07T17:53:59.907Z,101087.00
2022-10-07T17:56:28.737Z,101082.00
2022-10-07T17:58:57.076Z,101070.00
2022-10-07T18:01:27.421Z,101070.00
2022-10-07T18:03:57.418Z,101077.00
2022-10-07T18:06:26.183Z,101072.00
2022-10-07T18:08:54.070Z,101069.00
2022-10-07T18:11:43.333Z,101072.00
2022-10-07T18:14:28.830Z,101075.00
2022-10-07T18:16:56.582Z,101076.00
2022-10-07T18:19:24.810Z,101072.00
2022-10-07T18:21:52.535Z,101078.00
2022-10-07T18:24:21.278Z,101070.00
2022-10-07T18:26:50.607Z,101067.00
2022-10-07T18:29:18.984Z,101074.00
2022-10-07T18:31:46.764Z,101064.00
2022-10-07T18:34:14.632Z,101065.00
2022-10-07T18:36:42.788Z,101066.00
2022-10-07T18:39:12.257Z,101067.00
2022-10-07T18:41:40.240Z,101059.00
2022-10-07T18:44:10.465Z,101057.00
2022-10-07T18:46:38.192Z,101057.00
2022-10-07T18:49:05.944Z,101053.00
2022-10-07T18:51:33.668Z,101059.00
2022-10-07T18:54:01.470Z,101058.00
2022-10-07T18:56:29.263Z,101056.00
2022-10-07T18:58:57.317Z,101047.00
2022-10-07T19:01:30.104Z,101047.00
2022-10-07T19:04:01.052Z,101038.00
2022-10-07T19:06:30.295Z,101045.00
2022-10-07T19:09:01.641Z,101040.00
2022-10-07T19:11:30.379Z,101028.00
2022-10-07T19:13:59.107Z,101027.00
2022-10-07T19:16:30.686Z,101033.00
2022-10-07T19:19:00.024Z,101023.00
2022-10-07T19:21:28.743Z,101025.00
2022-10-07T19:23:58.664Z,101031.00
2022-10-07T19:26:28.244Z,101020.00
2022-10-07T19:28:56.699Z,101022.00
2022-10-07T19:31:26.996Z,101019.00
2022-10-07T19:34:01.302Z,101023.00
2022-10-07T19:36:30.818Z,101022.00
2022-10-07T19:38:59.017Z,101020.00
2022-10-07T19:41:29.537Z,101015.00
2022-10-07T19:43:57.960Z,101014.00
2022-10-07T19:46:27.633Z,101018.00
2022-10-07T19:48:58.287Z,101016.00
2022-10-07T19:51:27.323Z,101022.00
2022-10-07T19:53:57.230Z,101013.00
2022-10-07T19:56:26.667Z,101013.00
2022-10-07T19:58:56.606Z,101011.00
2022-10-07T20:01:26.497Z,101016.00
2022-10-07T20:03:59.792Z,101016.00
2022-10-07T20:06:27.928Z,101015.00
2022-10-07T20:08:57.130Z,101012.00
2022-10-07T20:11:24.979Z,101015.00
2022-10-07T20:13:54.248Z,101017.00
2022-10-07T20:16:24.173Z,101010.00
2022-10-07T20:18:58.422Z,101001.00
2022-10-07T20:21:27.524Z,101007.00
2022-10-07T20:23:55.892Z,101008.00
2022-10-07T20:26:25.830Z,101004.00
2022-10-07T20:28:55.962Z,101010.00
2022-10-07T20:31:25.450Z,101006.00
2022-10-07T20:33:55.092Z,101001.00
2022-10-07T20:36:24.342Z,100996.00
2022-10-07T20:39:14.232Z,100992.00
2022-10-07T20:41:59.614Z,100991.00
2022-10-07T20:44:27.604Z,100991.00
2022-10-07T20:46:55.795Z,101000.00
2022-10-07T20:49:24.210Z,100992.00
2022-10-07T20:51:53.352Z,100993.00
2022-10-07T20:54:23.972Z,100994.00
2022-10-07T20:56:52.166Z,100994.00
2022-10-07T20:59:20.131Z,100984.00
2022-10-07T21:01:48.185Z,100981.00
2022-10-07T21:04:17.796Z,100975.00
2022-10-07T21:06:45.505Z,100980.00
2022-10-07T21:09:14.682Z,100983.00
2022-10-07T21:11:43.809Z,100975.00
2022-10-07T21:14:11.971Z,100970.00
2022-10-07T21:16:39.814Z,100966.00
2022-10-07T21:19:07.933Z,100967.00
2022-10-07T21:21:36.114Z,100969.00
2022-10-07T21:24:03.854Z,100960.00
2022-10-07T21:26:31.572Z,100970.00
2022-10-07T21:29:00.693Z,100959.00
2022-10-07T21:31:28.457Z,100955.00
2022-10-07T21:33:56.485Z,100969.00
2022-10-07T21:36:25.330Z,100949.00
2022-10-07T21:38:56.086Z,100943.00
2022-10-07T21:41:26.005Z,100943.00
2022-10-07T21:43:55.199Z,100943.00
2022-10-07T21:46:26.122Z,100931.00
2022-10-07T21:48:55.074Z,100927.00
2022-10-07T21:51:25.588Z,100927.00
2022-10-07T21:53:54.579Z,100927.00
2022-10-07T21:56:23.067Z,100916.00
2022-10-07T21:58:52.942Z,100917.00
2022-10-07T22:01:23.441Z,100923.00
2022-10-07T22:03:56.177Z,100910.00
2022-10-07T22:06:44.746Z,100915.00
2022-10-07T22:09:13.553Z,100919.00
2022-10-07T22:11:41.440Z,100908.00
2022-10-07T22:14:12.837Z,100906.00
2022-10-07T22:16:41.426Z,100905.00
2022-10-07T22:19:12.126Z,100904.00
2022-10-07T22:21:41.418Z,100909.00
2022-10-07T22:24:09.789Z,100895.00
2022-10-07T22:26:40.581Z,100899.00
2022-10-07T22:29:10.183Z,100891.00
2022-10-07T22:31:38.078Z,100898.00
2022-10-07T22:34:06.729Z,100887.00
2022-10-07T22:36:36.739Z,100878.00
2022-10-07T22:39:04.777Z,100880.00
2022-10-07T22:41:32.499Z,100871.00
2022-10-07T22:44:01.250Z,100869.00
2022-10-07T22:46:29.583Z,100865.00
2022-10-07T22:48:58.619Z,100864.00
2022-10-07T22:51:28.321Z,100869.00
2022-10-07T22:53:58.011Z,100868.00
2022-10-07T22:56:29.255Z,100875.00
2022-10-07T22:58:59.662Z,100872.00
2022-10-07T23:01:29.340Z,100876.00
2022-10-07T23:03:58.779Z,100867.00
2022-10-07T23:06:26.687Z,100860.00
2022-10-07T23:08:55.010Z,100851.00
2022-10-07T23:11:25.832Z,100852.00
2022-10-07T23:13:54.530Z,100856.00
2022-10-07T23:16:24.799Z,100869.00
2022-10-07T23:18:53.667Z,100856.00
2022-10-07T23:21:22.940Z,100860.00
2022-10-07T23:23:52.892Z,100852.00
2022-10-07T23:26:22.790Z,100856.00
2022-10-07T23:28:53.323Z,100853.00
2022-10-07T23:31:22.964Z,100853.00
2022-10-07T23:33:52.570Z,100861.00
2022-10-07T23:36:21.749Z,100844.00
2022-10-07T23:38:50.965Z,100846.00
2022-10-07T23:41:20.619Z,100839.00
2022-10-07T23:43:50.345Z,100829.00
2022-10-07T23:46:20.627Z,100844.00
2022-10-07T23:48:49.406Z,100834.00
2022-10-07T23:51:19.738Z,100844.00
2022-10-07T23:53:48.002Z,100832.00
2022-10-07T23:56:18.479Z,100834.00
2022-10-07T23:58:46.361Z,100833.00
